Time;durP1;ratioP1;P1;durP2;ratioP2;P2;SDS_P1;SDS_P2;PMS_P1;PMS_P2;Temp;Humidity;BMP_temperature;BMP_pressure;BME280_temperature;BME280_humidity;BME280_pressure;Samples;Min_cycle;Max_cycle;Signal;HPM_P1;HPM_P2
2023/10/24 00:02:13;;;;;;;4.85;3.38;;;14.10;71.50;;;;;;5051834;28;20563;-81
2023/10/24 00:04:39;;;;;;;6.43;3.28;;;14.20;71.70;;;;;;5062103;28;20500;-81
2023/10/24 00:07:05;;;;;;;10.43;3.67;;;14.10;71.60;;;;;;5064740;28;20029;-82
2023/10/24 00:09:32;;;;;;;6.55;3.95;;;14.10;72.20;;;;;;5060823;28;20060;-82
2023/10/24 00:11:58;;;;;;;5.88;3.03;;;14.10;71.80;;;;;;5061044;28;20036;-82
2023/10/24 00:14:24;;;;;;;8.23;3.85;;;14.10;71.90;;;;;;5066088;28;20131;-82
2023/10/24 00:16:50;;;;;;;6.38;3.00;;;14.10;71.90;;;;;;5065416;28;20470;-82
2023/10/24 00:19:16;;;;;;;7.18;3.45;;;14.10;72.00;;;;;;5057183;28;20096;-82
2023/10/24 00:21:42;;;;;;;9.43;3.47;;;14.10;72.10;;;;;;5063368;28;20089;-83
2023/10/24 00:24:08;;;;;;;6.88;4.03;;;14.00;72.00;;;;;;5058002;28;20218;-83
2023/10/24 00:26:34;;;;;;;10.90;3.72;;;14.00;72.10;;;;;;5052025;28;20035;-82
2023/10/24 00:29:00;;;;;;;4.50;3.28;;;14.00;72.10;;;;;;5064148;28;20040;-82
2023/10/24 00:31:26;;;;;;;8.35;3.20;;;13.90;72.00;;;;;;5090426;27;20522;-82
2023/10/24 00:33:52;;;;;;;8.43;3.58;;;14.00;72.30;;;;;;5064060;28;20118;-83
2023/10/24 00:36:19;;;;;;;4.35;3.22;;;14.00;72.40;;;;;;5062263;28;20456;-81
2023/10/24 00:38:45;;;;;;;6.70;3.38;;;13.90;72.30;;;;;;5044466;28;20079;-82
2023/10/24 00:41:11;;;;;;;6.80;3.53;;;13.90;72.30;;;;;;5044457;28;20021;-81
2023/10/24 00:43:37;;;;;;;5.78;3.47;;;13.90;72.30;;;;;;5046183;28;20583;-82
2023/10/24 00:46:04;;;;;;;5.00;3.45;;;13.90;72.40;;;;;;5069689;28;20024;-82
2023/10/24 00:48:32;;;;;;;5.05;3.08;;;13.90;72.50;;;;;;5066660;28;20039;-81
2023/10/24 00:50:59;;;;;;;7.57;3.70;;;13.90;72.50;;;;;;5063522;28;20348;-81
2023/10/24 00:53:25;;;;;;;5.30;3.17;;;13.80;72.40;;;;;;5065876;28;20157;-81
2023/10/24 00:55:51;;;;;;;6.13;3.22;;;13.80;72.50;;;;;;5062402;28;20032;-81
2023/10/24 00:58:18;;;;;;;6.38;3.78;;;13.80;72.50;;;;;;5048645;28;20032;-81
2023/10/24 01:00:45;;;;;;;5.15;3.42;;;13.80;72.50;;;;;;5062927;28;20037;-81
2023/10/24 01:03:12;;;;;;;3.42;3.00;;;13.80;72.60;;;;;;5065099;28;20384;-81
2023/10/24 01:05:41;;;;;;;6.10;3.10;;;13.80;72.70;;;;;;5061970;28;20234;-81
2023/10/24 01:08:07;;;;;;;6.40;3.03;;;13.80;72.70;;;;;;5060901;28;20349;-80
2023/10/24 01:10:34;;;;;;;5.30;3.22;;;13.80;72.80;;;;;;5057733;28;20235;-81
2023/10/24 01:13:01;;;;;;;5.75;3.42;;;13.80;72.80;;;;;;5060042;28;20032;-81
2023/10/24 01:15:27;;;;;;;5.35;2.78;;;13.80;72.80;;;;;;5063326;28;20393;-81
2023/10/24 01:17:53;;;;;;;5.40;3.97;;;13.80;72.90;;;;;;5060114;28;20430;-82
2023/10/24 01:20:19;;;;;;;5.72;2.90;;;13.80;72.90;;;;;;5044648;28;20089;-82
2023/10/24 01:22:46;;;;;;;5.70;3.25;;;13.80;73.00;;;;;;5060158;28;20059;-82
2023/10/24 01:25:14;;;;;;;4.30;2.80;;;13.80;73.00;;;;;;5061501;28;20028;-82
2023/10/24 01:27:45;;;;;;;5.22;3.67;;;13.80;73.00;;;;;;5060922;28;20108;-82
2023/10/24 01:30:12;;;;;;;5.22;3.00;;;13.80;73.00;;;;;;5059698;28;20024;-83
2023/10/24 01:32:38;;;;;;;5.75;2.72;;;13.80;73.00;;;;;;5065632;28;20920;-83
2023/10/24 01:35:07;;;;;;;4.05;2.70;;;13.80;73.10;;;;;;5056220;28;20037;-83
2023/10/24 01:37:33;;;;;;;6.03;2.42;;;13.70;72.90;;;;;;5059862;28;20101;-83
2023/10/24 01:39:59;;;;;;;4.53;3.08;;;13.70;73.00;;;;;;5041705;28;20041;-83
2023/10/24 01:42:25;;;;;;;5.03;3.10;;;13.80;73.20;;;;;;5057639;28;20057;-83
2023/10/24 01:44:52;;;;;;;6.15;3.20;;;13.70;73.10;;;;;;5051422;28;20187;-83
2023/10/24 01:47:18;;;;;;;6.70;2.67;;;13.70;73.20;;;;;;5063739;28;20280;-83
2023/10/24 01:49:44;;;;;;;3.65;2.97;;;13.70;73.20;;;;;;5064937;28;20309;-83
2023/10/24 01:52:11;;;;;;;4.43;2.70;;;13.60;73.10;;;;;;5061833;28;20043;-82
2023/10/24 01:54:36;;;;;;;5.72;2.70;;;13.70;73.30;;;;;;5062933;28;20028;-81
2023/10/24 01:57:03;;;;;;;5.47;2.65;;;13.60;73.20;;;;;;5060895;28;20262;-82
2023/10/24 01:59:29;;;;;;;5.35;3.22;;;13.60;73.20;;;;;;5063214;28;20064;-81
2023/10/24 02:01:54;;;;;;;2.78;2.42;;;13.60;73.30;;;;;;5050282;28;20499;-82
2023/10/24 02:04:22;;;;;;;5.05;2.95;;;13.60;73.40;;;;;;5062141;28;20036;-82
2023/10/24 02:06:48;;;;;;;4.30;2.80;;;13.60;73.40;;;;;;5043826;28;20063;-82
2023/10/24 02:09:14;;;;;;;3.28;2.38;;;13.60;73.40;;;;;;5062855;28;20456;-82
2023/10/24 02:11:40;;;;;;;3.88;2.70;;;13.60;73.40;;;;;;5060519;28;20035;-82
2023/10/24 02:14:06;;;;;;;4.05;3.08;;;13.60;73.40;;;;;;5062358;28;20040;-82
2023/10/24 02:16:33;;;;;;;2.55;2.35;;;13.60;73.50;;;;;;5045599;28;20031;-81
2023/10/24 02:18:58;;;;;;;4.70;2.90;;;13.60;73.40;;;;;;5062740;28;20024;-82
2023/10/24 02:21:24;;;;;;;5.30;3.17;;;13.60;73.50;;;;;;5060709;28;20028;-82
2023/10/24 02:23:51;;;;;;;3.45;2.67;;;13.50;73.30;;;;;;5045617;28;20100;-81
2023/10/24 02:26:17;;;;;;;4.60;2.88;;;13.60;73.60;;;;;;5043574;28;20373;-81
2023/10/24 02:28:43;;;;;;;4.32;2.78;;;13.50;73.50;;;;;;5062515;28;20047;-81
2023/10/24 02:31:10;;;;;;;3.85;2.65;;;13.50;73.50;;;;;;5060137;28;20024;-81
2023/10/24 02:33:37;;;;;;;4.25;2.90;;;13.50;73.60;;;;;;5061283;28;20028;-81
2023/10/24 02:36:10;;;;;;;3.35;2.67;;;13.50;73.60;;;;;;5061292;28;20051;-81
2023/10/24 02:38:36;;;;;;;4.15;2.92;;;13.50;73.60;;;;;;5060785;28;20145;-81
2023/10/24 02:41:04;;;;;;;4.80;2.60;;;13.50;73.60;;;;;;5055972;28;20032;-85
2023/10/24 02:43:30;;;;;;;2.92;2.63;;;13.50;73.60;;;;;;5060951;28;20489;-84
2023/10/24 02:46:02;;;;;;;5.78;2.53;;;13.40;73.50;;;;;;5060850;28;20024;-86
2023/10/24 02:48:28;;;;;;;4.57;2.78;;;13.50;73.70;;;;;;5039960;28;20032;-86
2023/10/24 02:50:56;;;;;;;3.78;2.92;;;13.40;73.50;;;;;;5043870;28;20048;-85
2023/10/24 02:53:23;;;;;;;4.38;2.67;;;13.40;73.50;;;;;;5062791;28;20028;-83
2023/10/24 02:55:49;;;;;;;3.90;2.97;;;13.40;73.60;;;;;;5059546;28;20028;-83
2023/10/24 02:58:16;;;;;;;3.85;3.03;;;13.30;73.40;;;;;;5040785;28;20081;-83
2023/10/24 03:00:44;;;;;;;4.07;2.50;;;13.30;73.50;;;;;;5046260;28;20059;-83
2023/10/24 03:03:13;;;;;;;4.40;3.20;;;13.30;73.50;;;;;;5044077;28;20037;-83
2023/10/24 03:05:40;;;;;;;4.93;2.60;;;13.30;73.50;;;;;;5039071;28;20021;-84
2023/10/24 03:08:06;;;;;;;4.78;2.45;;;13.20;73.40;;;;;;5060489;28;20048;-84
2023/10/24 03:10:39;;;;;;;4.63;3.00;;;13.20;73.40;;;;;;5075376;28;20590;-83
2023/10/24 03:13:05;;;;;;;3.88;2.83;;;13.20;73.40;;;;;;5060100;28;20252;-84
2023/10/24 03:15:33;;;;;;;3.10;2.25;;;13.10;73.30;;;;;;5060008;28;20069;-83
2023/10/24 03:18:00;;;;;;;3.35;2.53;;;13.10;73.20;;;;;;5036795;28;20090;-84
2023/10/24 03:20:27;;;;;;;4.57;2.88;;;13.10;73.30;;;;;;5059999;28;20040;-84
2023/10/24 03:22:57;;;;;;;3.60;2.50;;;13.00;73.10;;;;;;5057239;28;20120;-84
2023/10/24 03:25:24;;;;;;;5.68;3.60;;;13.00;73.10;;;;;;5059566;28;20495;-84
2023/10/24 03:27:54;;;;;;;3.85;2.67;;;13.00;73.20;;;;;;5059639;28;20499;-84
2023/10/24 03:30:21;;;;;;;4.38;2.67;;;12.90;73.00;;;;;;5042694;28;20064;-83
2023/10/24 03:32:48;;;;;;;4.93;2.83;;;12.90;73.10;;;;;;5058762;28;20049;-84
2023/10/24 03:35:15;;;;;;;4.90;3.40;;;12.90;73.10;;;;;;5038374;28;20136;-82
2023/10/24 03:37:41;;;;;;;4.30;2.55;;;12.80;73.00;;;;;;5059737;28;20079;-83
2023/10/24 03:40:10;;;;;;;3.38;2.70;;;12.90;73.30;;;;;;5037635;28;20400;-83
2023/10/24 03:42:36;;;;;;;3.92;3.30;;;12.80;73.20;;;;;;5068806;28;20041;-83
2023/10/24 03:45:03;;;;;;;6.30;3.00;;;12.80;73.20;;;;;;5056982;28;20037;-83
2023/10/24 03:47:29;;;;;;;3.15;2.85;;;12.80;73.30;;;;;;5040176;28;20045;-83
2023/10/24 03:49:55;;;;;;;3.78;2.78;;;12.80;73.30;;;;;;5032999;28;20374;-83
2023/10/24 03:52:21;;;;;;;3.20;2.90;;;12.80;73.30;;;;;;5046489;28;20320;-83
2023/10/24 03:54:47;;;;;;;4.53;3.33;;;12.80;73.40;;;;;;5060250;28;20258;-84
2023/10/24 03:57:13;;;;;;;5.00;3.97;;;12.80;73.40;;;;;;5058292;28;20460;-84
2023/10/24 03:59:39;;;;;;;3.45;3.10;;;12.80;73.50;;;;;;5062082;28;20024;-83
2023/10/24 04:02:04;;;;;;;4.38;3.20;;;12.80;73.50;;;;;;5055443;28;20433;-84
2023/10/24 04:04:30;;;;;;;3.20;2.90;;;12.80;73.50;;;;;;5059490;28;20105;-84
2023/10/24 04:06:56;;;;;;;4.68;3.35;;;12.90;73.70;;;;;;5058631;28;20044;-83
2023/10/24 04:09:22;;;;;;;3.72;3.05;;;12.80;73.50;;;;;;5059604;28;20111;-83
2023/10/24 04:11:48;;;;;;;3.28;2.72;;;12.90;73.70;;;;;;5057053;28;20036;-84
2023/10/24 04:14:15;;;;;;;3.78;3.33;;;12.90;73.70;;;;;;5059958;28;20025;-84
2023/10/24 04:16:41;;;;;;;5.40;3.53;;;12.90;73.70;;;;;;5059925;28;20056;-83
2023/10/24 04:19:07;;;;;;;4.50;3.58;;;12.80;73.60;;;;;;5060781;28;20036;-84
2023/10/24 04:21:33;;;;;;;4.05;3.65;;;12.90;73.80;;;;;;5060647;28;20028;-84
2023/10/24 04:23:59;;;;;;;4.13;3.38;;;12.80;73.70;;;;;;5043491;28;20037;-84
2023/10/24 04:26:25;;;;;;;3.30;3.00;;;12.80;73.70;;;;;;5056767;28;20079;-83
2023/10/24 04:28:51;;;;;;;4.55;3.55;;;12.80;73.70;;;;;;5043883;28;20123;-85
2023/10/24 04:31:18;;;;;;;3.92;3.47;;;12.80;73.70;;;;;;5056622;28;20082;-84
2023/10/24 04:33:44;;;;;;;4.32;3.90;;;12.80;73.80;;;;;;5057487;28;20617;-83
2023/10/24 04:36:11;;;;;;;4.32;3.92;;;12.80;73.80;;;;;;5059984;28;20033;-83
2023/10/24 04:38:37;;;;;;;8.20;3.05;;;12.80;73.80;;;;;;5043834;28;20057;-83
2023/10/24 04:41:03;;;;;;;5.43;3.65;;;12.80;73.80;;;;;;5051015;28;20039;-83
2023/10/24 04:43:29;;;;;;;4.65;3.63;;;12.80;73.90;;;;;;5059508;28;20040;-84
2023/10/24 04:45:55;;;;;;;6.03;3.70;;;12.80;73.90;;;;;;5044226;28;20043;-82
2023/10/24 04:48:20;;;;;;;5.43;3.67;;;12.70;73.70;;;;;;5058750;28;20028;-82
2023/10/24 04:50:46;;;;;;;3.85;3.38;;;12.70;73.70;;;;;;5065010;28;20031;-82
2023/10/24 04:53:13;;;;;;;3.70;3.25;;;12.70;73.70;;;;;;5058209;28;20033;-83
2023/10/24 04:55:39;;;;;;;4.75;3.92;;;12.70;74.00;;;;;;5057401;28;20433;-83
2023/10/24 04:58:06;;;;;;;4.15;3.75;;;12.60;73.60;;;;;;5061349;28;20055;-82
2023/10/24 05:00:32;;;;;;;4.80;3.72;;;12.60;73.60;;;;;;5045269;28;20039;-82
2023/10/24 05:02:58;;;;;;;4.57;3.78;;;12.60;73.60;;;;;;5061873;28;20507;-82
2023/10/24 05:05:24;;;;;;;4.43;3.45;;;12.50;73.50;;;;;;5061949;28;20033;-82
2023/10/24 05:07:50;;;;;;;4.93;3.63;;;12.50;73.90;;;;;;5057115;28;20601;-82
2023/10/24 05:10:16;;;;;;;3.47;3.17;;;12.50;73.50;;;;;;5057351;28;20029;-82
2023/10/24 05:12:42;;;;;;;3.75;3.45;;;12.40;73.30;;;;;;5064812;28;20123;-84
2023/10/24 05:15:08;;;;;;;4.00;3.67;;;12.40;73.30;;;;;;5062092;28;20370;-82
2023/10/24 05:17:34;;;;;;;5.15;3.75;;;12.30;73.20;;;;;;5083645;28;20028;-84
2023/10/24 05:20:03;;;;;;;4.25;3.90;;;12.30;73.20;;;;;;5063114;28;20545;-84
2023/10/24 05:22:31;;;;;;;4.07;3.15;;;12.20;73.60;;;;;;5041412;28;20118;-84
2023/10/24 05:24:57;;;;;;;5.05;3.67;;;12.20;73.10;;;;;;5059755;28;20113;-84
2023/10/24 05:27:23;;;;;;;4.20;3.22;;;12.20;73.10;;;;;;5063829;28;20381;-84
2023/10/24 05:29:49;;;;;;;3.55;3.22;;;12.10;72.90;;;;;;5056831;28;20032;-84
2023/10/24 05:32:15;;;;;;;3.25;2.97;;;12.10;73.00;;;;;;5056292;28;20467;-84
2023/10/24 05:34:42;;;;;;;3.47;3.17;;;12.10;73.00;;;;;;5065302;28;20115;-84
2023/10/24 05:37:08;;;;;;;3.33;3.03;;;12.10;73.00;;;;;;5041527;28;20548;-82
2023/10/24 05:39:34;;;;;;;3.40;3.13;;;12.00;72.80;;;;;;5041807;28;20560;-82
2023/10/24 05:42:00;;;;;;;2.53;2.33;;;12.00;72.90;;;;;;5053723;28;20614;-83
2023/10/24 05:44:26;;;;;;;2.75;2.55;;;12.00;72.90;;;;;;5065465;28;20123;-83
2023/10/24 05:46:53;;;;;;;3.00;2.70;;;12.00;72.90;;;;;;5068812;28;20029;-83
2023/10/24 05:49:20;;;;;;;2.53;2.25;;;11.90;72.80;;;;;;5045203;28;20062;-83
2023/10/24 05:51:46;;;;;;;2.17;1.98;;;11.90;72.80;;;;;;5043000;28;20028;-83
2023/10/24 05:54:12;;;;;;;2.97;2.58;;;11.80;72.70;;;;;;5063439;28;20434;-84
2023/10/24 05:56:43;;;;;;;2.90;2.38;;;11.80;72.80;;;;;;5091426;27;20032;-78
2023/10/24 05:59:13;;;;;;;7.47;3.22;;;11.80;72.70;;;;;;5060278;28;20155;-79
2023/10/24 06:01:39;;;;;;;6.85;2.53;;;11.70;72.80;;;;;;5063503;28;20131;-83
2023/10/24 06:04:07;;;;;;;16.95;5.20;;;11.80;73.00;;;;;;5042138;28;20039;-80
2023/10/24 06:06:33;;;;;;;11.93;4.10;;;11.70;72.90;;;;;;5043176;28;20036;-82
2023/10/24 06:08:59;;;;;;;10.90;4.43;;;11.70;72.90;;;;;;5057261;28;20028;-79
2023/10/24 06:11:25;;;;;;;6.38;3.00;;;11.70;73.00;;;;;;5039733;28;20024;-79
2023/10/24 06:13:51;;;;;;;8.00;3.95;;;11.70;73.10;;;;;;5059916;28;20044;-80
2023/10/24 06:16:18;;;;;;;6.95;2.97;;;11.70;73.20;;;;;;5062412;28;20113;-79
2023/10/24 06:18:44;;;;;;;4.22;2.80;;;11.80;73.50;;;;;;5045262;28;20599;-80
2023/10/24 06:21:13;;;;;;;5.00;2.65;;;11.80;73.50;;;;;;5040695;28;20539;-80
2023/10/24 06:23:40;;;;;;;3.63;2.42;;;11.80;73.40;;;;;;5059021;28;20044;-80
2023/10/24 06:26:16;;;;;;;2.92;2.38;;;11.80;73.30;;;;;;5055676;28;20032;-79
2023/10/24 06:28:42;;;;;;;2.75;2.50;;;11.70;73.10;;;;;;5061308;28;20503;-79
2023/10/24 06:31:09;;;;;;;2.50;2.30;;;11.70;73.10;;;;;;5052597;28;20024;-79
2023/10/24 06:33:35;;;;;;;2.55;2.35;;;11.70;73.10;;;;;;5058045;28;20032;-79
2023/10/24 06:36:02;;;;;;;2.75;2.10;;;11.60;72.90;;;;;;5052664;28;20500;-79
2023/10/24 06:38:29;;;;;;;2.60;2.40;;;11.60;72.90;;;;;;5056926;28;20055;-79
2023/10/24 06:40:55;;;;;;;2.75;2.10;;;11.50;72.70;;;;;;5051075;28;20110;-79
2023/10/24 06:43:22;;;;;;;2.13;1.90;;;11.50;73.30;;;;;;5059514;28;20507;-80
2023/10/24 06:45:48;;;;;;;3.17;2.15;;;11.50;72.70;;;;;;5060699;28;20047;-78
2023/10/24 06:48:14;;;;;;;2.30;1.88;;;11.40;72.50;;;;;;5063540;28;20086;-79
2023/10/24 06:50:41;;;;;;;2.15;1.75;;;11.40;72.40;;;;;;5056895;28;20554;-78
2023/10/24 06:53:08;;;;;;;1.70;1.60;;;11.30;72.20;;;;;;5059962;28;20191;-79
2023/10/24 06:55:35;;;;;;;1.98;1.88;;;11.30;72.20;;;;;;5056573;28;20036;-78
2023/10/24 06:58:03;;;;;;;1.63;1.52;;;11.30;72.20;;;;;;5058977;28;20034;-78
2023/10/24 07:00:29;;;;;;;1.70;1.60;;;11.20;72.00;;;;;;5053272;28;20040;-79
2023/10/24 07:02:56;;;;;;;1.60;1.50;;;11.20;72.00;;;;;;5039815;28;20055;-79
2023/10/24 07:05:22;;;;;;;1.45;1.35;;;11.20;72.00;;;;;;5059708;28;20040;-79
2023/10/24 07:07:48;;;;;;;2.10;1.55;;;11.10;71.70;;;;;;5057906;28;20048;-79
2023/10/24 07:10:14;;;;;;;1.80;1.70;;;11.10;71.70;;;;;;5040211;28;20037;-78
2023/10/24 07:12:40;;;;;;;1.55;1.45;;;11.10;71.70;;;;;;5058259;28;20056;-79
2023/10/24 07:15:08;;;;;;;1.42;1.33;;;11.00;71.50;;;;;;5043636;28;20040;-80
2023/10/24 07:17:35;;;;;;;1.70;1.60;;;11.00;71.50;;;;;;5061853;28;20131;-81
2023/10/24 07:20:01;;;;;;;1.80;1.70;;;11.00;71.50;;;;;;5038001;28;20443;-80
2023/10/24 07:22:28;;;;;;;2.20;2.00;;;10.90;71.30;;;;;;5058398;28;20052;-79
2023/10/24 07:24:54;;;;;;;2.38;1.73;;;10.90;71.30;;;;;;5056453;28;20074;-79
2023/10/24 07:27:21;;;;;;;2.33;2.13;;;10.90;71.20;;;;;;5055406;28;20044;-78
2023/10/24 07:29:47;;;;;;;2.47;1.75;;;10.90;71.20;;;;;;5056421;28;20035;-78
2023/10/24 07:32:14;;;;;;;2.00;1.70;;;10.90;71.20;;;;;;5054228;28;20115;-78
2023/10/24 07:34:41;;;;;;;2.20;1.90;;;10.90;71.20;;;;;;5054610;28;20021;-78
2023/10/24 07:37:10;;;;;;;1.90;1.80;;;10.90;71.70;;;;;;5055444;28;20488;-78
2023/10/24 07:39:36;;;;;;;1.55;1.45;;;10.90;71.10;;;;;;5054009;28;20458;-79
2023/10/24 07:42:03;;;;;;;3.28;2.30;;;10.90;71.10;;;;;;5051135;28;20059;-78
2023/10/24 07:44:30;;;;;;;2.30;2.10;;;10.80;70.90;;;;;;5056274;28;20535;-80
2023/10/24 07:46:56;;;;;;;5.47;2.00;;;10.90;71.10;;;;;;5057618;28;20089;-80
2023/10/24 07:49:22;;;;;;;1.77;1.67;;;10.80;70.90;;;;;;5058197;28;20388;-80
2023/10/24 07:51:48;;;;;;;2.13;1.80;;;10.90;71.10;;;;;;5057767;28;20055;-81
2023/10/24 07:54:16;;;;;;;2.35;2.05;;;10.90;71.10;;;;;;5056025;28;20040;-80
2023/10/24 07:56:45;;;;;;;2.75;2.08;;;10.80;70.90;;;;;;5054337;28;20476;-80
2023/10/24 07:59:12;;;;;;;3.33;1.95;;;10.90;71.00;;;;;;5043104;28;20063;-80
2023/10/24 08:01:38;;;;;;;2.10;1.77;;;10.80;70.80;;;;;;5056081;28;20042;-80
2023/10/24 08:04:04;;;;;;;2.40;1.85;;;10.80;70.90;;;;;;5059448;28;20028;-78
2023/10/24 08:06:29;;;;;;;2.08;1.58;;;10.80;70.90;;;;;;5054899;28;20067;-83
2023/10/24 08:08:55;;;;;;;1.83;1.60;;;10.80;70.90;;;;;;5053527;28;20369;-82
2023/10/24 08:11:22;;;;;;;2.30;2.10;;;10.80;71.40;;;;;;5054590;28;20044;-84
2023/10/24 08:13:48;;;;;;;2.03;1.67;;;10.90;71.10;;;;;;5044378;28;20522;-82
2023/10/24 08:16:14;;;;;;;1.67;1.55;;;10.90;71.10;;;;;;5056260;28;20479;-81
2023/10/24 08:18:40;;;;;;;1.52;1.25;;;10.90;71.10;;;;;;5057018;28;20498;-80
2023/10/24 08:21:07;;;;;;;1.85;1.25;;;10.90;71.10;;;;;;5054405;28;20044;-80
2023/10/24 08:23:33;;;;;;;1.90;1.38;;;10.90;71.10;;;;;;5058900;28;20036;-80
2023/10/24 08:25:59;;;;;;;2.17;1.42;;;10.90;71.10;;;;;;5054634;28;20094;-80
2023/10/24 08:28:25;;;;;;;2.58;1.45;;;10.90;71.10;;;;;;5062204;28;20035;-79
2023/10/24 08:30:52;;;;;;;1.60;1.50;;;11.00;71.40;;;;;;5054329;28;20025;-79
2023/10/24 08:33:20;;;;;;;1.92;1.42;;;11.00;71.40;;;;;;5046553;28;20085;-79
2023/10/24 08:35:47;;;;;;;1.85;1.70;;;11.00;71.40;;;;;;5055568;28;20055;-80
2023/10/24 08:38:13;;;;;;;1.73;1.60;;;11.00;71.40;;;;;;5042598;28;20025;-80
2023/10/24 08:40:40;;;;;;;1.60;1.50;;;11.00;71.40;;;;;;5047270;28;20711;-79
2023/10/24 08:43:08;;;;;;;4.00;1.48;;;11.00;71.40;;;;;;5053849;28;20048;-80
2023/10/24 08:45:35;;;;;;;1.83;1.30;;;11.10;71.60;;;;;;5060271;28;20043;-79
2023/10/24 08:48:05;;;;;;;3.15;1.80;;;11.10;71.60;;;;;;5047693;28;20056;-79
2023/10/24 08:50:35;;;;;;;2.33;2.03;;;11.10;71.70;;;;;;5060584;28;20422;-79
2023/10/24 08:53:02;;;;;;;3.90;1.35;;;11.20;71.90;;;;;;5045293;28;20341;-80
2023/10/24 08:55:29;;;;;;;2.33;1.70;;;11.20;71.90;;;;;;5041434;28;20032;-81
2023/10/24 08:57:57;;;;;;;3.40;1.35;;;11.20;71.80;;;;;;5059778;28;20036;-81
2023/10/24 09:00:24;;;;;;;4.20;1.63;;;11.20;71.80;;;;;;5060492;28;20467;-80
2023/10/24 09:02:51;;;;;;;4.32;1.40;;;11.30;72.00;;;;;;5040850;28;20054;-80
2023/10/24 09:05:19;;;;;;;2.90;1.60;;;11.40;72.20;;;;;;5041051;28;20078;-79
2023/10/24 09:07:44;;;;;;;3.10;1.63;;;11.40;72.30;;;;;;5037525;28;20033;-82
2023/10/24 09:10:11;;;;;;;3.55;1.30;;;11.40;72.30;;;;;;5090232;27;20043;-81
2023/10/24 09:12:39;;;;;;;3.40;1.63;;;11.50;72.60;;;;;;5059372;28;20028;-81
2023/10/24 09:15:09;;;;;;;4.80;2.42;;;11.50;72.60;;;;;;5043236;28;20036;-80
2023/10/24 09:17:37;;;;;;;3.45;1.58;;;11.50;72.70;;;;;;5044956;28;20050;-79
2023/10/24 09:20:05;;;;;;;4.18;1.50;;;11.50;73.20;;;;;;5060601;28;20582;-82
2023/10/24 09:22:34;;;;;;;8.82;2.00;;;11.60;72.90;;;;;;5040839;28;20396;-80
2023/10/24 09:25:01;;;;;;;3.38;1.52;;;11.70;73.10;;;;;;5058561;28;20035;-80
2023/10/24 09:27:28;;;;;;;6.72;1.42;;;11.70;73.10;;;;;;5061366;28;20498;-80
2023/10/24 09:29:54;;;;;;;6.47;2.47;;;11.70;73.10;;;;;;5063705;28;20056;-80
2023/10/24 09:32:20;;;;;;;2.58;1.20;;;11.70;73.10;;;;;;5058452;28;20445;-82
2023/10/24 09:34:48;;;;;;;4.57;1.85;;;11.80;73.20;;;;;;5057433;28;20247;-80
2023/10/24 09:37:15;;;;;;;4.78;1.55;;;11.80;73.20;;;;;;5054887;28;20551;-81
2023/10/24 09:39:57;;;;;;;4.38;1.10;;;11.90;73.40;;;;;;5056642;28;21111;-82
2023/10/24 09:42:29;;;;;;;5.78;1.40;;;11.90;73.50;;;;;;5055330;28;20052;-81
2023/10/24 09:45:00;;;;;;;5.22;1.42;;;11.90;73.40;;;;;;5066986;28;20131;-80
2023/10/24 09:47:27;;;;;;;3.67;0.80;;;11.90;73.40;;;;;;5063849;28;20083;-82
2023/10/24 09:49:54;;;;;;;2.63;0.93;;;12.00;73.60;;;;;;5060428;28;20102;-80
2023/10/24 09:52:23;;;;;;;2.03;0.80;;;12.00;73.60;;;;;;5060210;28;20040;-81
2023/10/24 09:54:51;;;;;;;3.05;1.10;;;12.00;73.60;;;;;;5047165;28;20441;-81
2023/10/24 09:57:19;;;;;;;4.70;1.00;;;12.10;73.80;;;;;;5048716;28;20028;-81
2023/10/24 09:59:57;;;;;;;3.17;1.45;;;12.10;73.80;;;;;;5050337;28;20039;-82
2023/10/24 10:02:24;;;;;;;6.97;2.33;;;12.20;74.00;;;;;;5055257;28;20301;-82
2023/10/24 10:04:51;;;;;;;2.63;1.38;;;12.20;74.00;;;;;;5056139;28;20121;-80
2023/10/24 10:07:18;;;;;;;2.05;0.77;;;12.20;74.00;;;;;;5055972;28;20340;-80
2023/10/24 10:09:54;;;;;;;2.42;0.95;;;12.30;74.10;;;;;;5048544;28;20039;-81
2023/10/24 10:12:20;;;;;;;3.92;1.20;;;12.30;74.10;;;;;;5059716;28;20541;-82
2023/10/24 10:15:17;;;;;;;2.42;0.90;;;12.40;74.30;;;;;;5060183;28;20332;-82
2023/10/24 10:18:09;;;;;;;6.60;1.17;;;12.40;74.30;;;;;;5065377;28;20079;-81
2023/10/24 10:20:56;;;;;;;3.28;1.13;;;12.40;74.20;;;;;;5045654;28;20040;-81
2023/10/24 10:23:34;;;;;;;5.50;1.55;;;12.50;74.40;;;;;;5065546;28;20514;-81
2023/10/24 10:26:19;;;;;;;3.17;0.95;;;12.50;74.30;;;;;;5056805;28;20036;-82
2023/10/24 10:29:11;;;;;;;4.43;0.93;;;12.60;74.50;;;;;;5073724;28;20105;-82
2023/10/24 10:31:49;;;;;;;1.15;0.60;;;12.60;74.50;;;;;;5053973;28;20426;-82
2023/10/24 10:34:15;;;;;;;6.50;1.58;;;12.60;74.50;;;;;;5060797;28;20107;-81
2023/10/24 10:36:55;;;;;;;6.05;0.90;;;12.70;74.60;;;;;;5056607;28;20524;-82
2023/10/24 10:39:22;;;;;;;4.28;1.00;;;12.70;74.60;;;;;;5058607;28;20557;-80
2023/10/24 10:41:48;;;;;;;2.55;0.80;;;12.70;74.50;;;;;;5046526;28;20597;-81
2023/10/24 10:44:35;;;;;;;3.67;1.70;;;12.80;74.70;;;;;;5059710;28;20032;-80
2023/10/24 10:47:05;;;;;;;6.90;1.52;;;12.80;74.80;;;;;;5057194;28;20040;-82
2023/10/24 10:49:42;;;;;;;3.42;1.38;;;12.80;75.20;;;;;;5056266;28;20360;-82
2023/10/24 10:52:17;;;;;;;3.72;0.90;;;12.90;74.90;;;;;;5055157;28;20068;-81
2023/10/24 10:55:12;;;;;;;3.22;1.13;;;12.90;74.80;;;;;;5058435;28;20488;-81
2023/10/24 10:58:00;;;;;;;2.28;1.02;;;13.00;75.00;;;;;;5053618;28;20282;-82
2023/10/24 11:00:34;;;;;;;4.10;1.10;;;13.10;75.10;;;;;;5052948;28;20411;-82
2023/10/24 11:03:16;;;;;;;6.47;1.05;;;13.10;75.00;;;;;;5053620;28;20044;-82
2023/10/24 11:05:45;;;;;;;5.07;1.05;;;13.10;75.00;;;;;;5057654;28;20439;-84
2023/10/24 11:08:18;;;;;;;4.38;1.70;;;13.20;75.10;;;;;;5038813;28;20509;-84
2023/10/24 11:10:54;;;;;;;4.82;0.80;;;13.20;75.00;;;;;;5057843;28;20453;-82
2023/10/24 11:13:33;;;;;;;3.88;1.42;;;13.30;75.10;;;;;;5085875;27;20029;-81
2023/10/24 11:16:07;;;;;;;5.40;1.08;;;13.40;75.30;;;;;;5060045;28;20032;-81
2023/10/24 11:18:35;;;;;;;5.68;1.70;;;13.40;75.10;;;;;;5063118;28;20089;-81
2023/10/24 11:21:03;;;;;;;4.72;0.98;;;13.50;75.30;;;;;;5043016;28;20032;-81
2023/10/24 11:23:32;;;;;;;3.95;0.82;;;13.50;75.30;;;;;;5065411;28;20048;-80
2023/10/24 11:25:59;;;;;;;4.47;1.25;;;13.50;75.10;;;;;;5045346;28;20475;-83
2023/10/24 11:28:27;;;;;;;5.07;1.65;;;13.50;75.10;;;;;;5059682;28;20095;-83
2023/10/24 11:30:55;;;;;;;3.10;0.85;;;13.60;75.20;;;;;;5041787;28;20032;-82
2023/10/24 11:33:21;;;;;;;4.20;1.20;;;13.60;75.20;;;;;;5040229;28;20123;-83
2023/10/24 11:35:48;;;;;;;6.28;1.40;;;13.70;75.30;;;;;;5049678;28;20499;-87
2023/10/24 11:38:14;;;;;;;7.95;1.77;;;13.70;75.20;;;;;;5055052;28;20059;-82
2023/10/24 11:40:41;;;;;;;5.93;1.08;;;13.70;75.10;;;;;;5054504;28;20040;-83
2023/10/24 11:43:08;;;;;;;2.70;0.80;;;13.80;75.20;;;;;;5055363;28;20047;-84
2023/10/24 11:45:38;;;;;;;6.47;1.20;;;13.80;75.20;;;;;;5044147;28;20044;-84
2023/10/24 11:48:04;;;;;;;7.00;1.58;;;13.90;75.20;;;;;;5059077;28;20064;-82
2023/10/24 11:50:43;;;;;;;4.25;1.55;;;13.90;75.10;;;;;;5054789;28;20033;-81
2023/10/24 11:53:11;;;;;;;4.65;0.90;;;14.00;75.20;;;;;;5061249;28;20046;-82
2023/10/24 11:55:37;;;;;;;4.20;1.00;;;14.00;75.10;;;;;;5043223;28;20032;-82
2023/10/24 11:58:08;;;;;;;3.35;1.20;;;14.10;75.20;;;;;;5054451;28;20032;-82
2023/10/24 12:00:38;;;;;;;3.55;1.58;;;14.10;75.10;;;;;;5052055;28;20028;-81
2023/10/24 12:03:04;;;;;;;6.47;0.88;;;14.10;75.00;;;;;;5038144;28;20063;-82
2023/10/24 12:05:31;;;;;;;7.35;2.97;;;14.20;75.00;;;;;;5052858;28;20450;-84
2023/10/24 12:07:59;;;;;;;5.15;1.40;;;14.30;75.00;;;;;;5036587;28;20060;-82
2023/10/24 12:10:30;;;;;;;3.92;1.02;;;14.30;74.80;;;;;;5054325;28;20997;-82
2023/10/24 12:12:57;;;;;;;6.10;0.90;;;14.40;74.80;;;;;;5050964;28;20036;-82
2023/10/24 12:15:27;;;;;;;2.50;0.77;;;14.40;74.60;;;;;;5055856;28;20029;-82
2023/10/24 12:17:53;;;;;;;3.55;1.00;;;14.50;74.60;;;;;;5041348;28;20104;-81
2023/10/24 12:20:23;;;;;;;7.13;1.05;;;14.50;74.40;;;;;;5055773;28;20300;-82
2023/10/24 12:22:49;;;;;;;3.70;1.08;;;14.60;74.50;;;;;;5057908;28;20044;-82
2023/10/24 12:25:17;;;;;;;5.20;1.48;;;14.60;74.30;;;;;;5042841;28;20379;-82
2023/10/24 12:27:45;;;;;;;4.03;1.33;;;14.60;74.20;;;;;;5041497;28;20055;-83
2023/10/24 12:30:13;;;;;;;5.43;1.35;;;14.60;74.20;;;;;;5061144;28;20772;-82
2023/10/24 12:32:41;;;;;;;5.40;0.93;;;14.60;74.10;;;;;;5057465;28;20098;-83
2023/10/24 12:35:08;;;;;;;6.10;1.30;;;14.60;74.00;;;;;;5057282;28;20485;-83
2023/10/24 12:37:36;;;;;;;4.30;0.80;;;14.70;74.10;;;;;;5058333;28;20491;-83
2023/10/24 12:40:06;;;;;;;6.63;1.15;;;14.70;74.00;;;;;;5046815;28;20044;-82
2023/10/24 12:42:33;;;;;;;4.13;1.00;;;14.70;73.90;;;;;;5050349;28;20036;-83
2023/10/24 12:45:05;;;;;;;4.30;1.83;;;14.70;73.90;;;;;;5065133;28;20040;-84
2023/10/24 12:47:33;;;;;;;4.80;1.13;;;14.70;73.90;;;;;;5059110;28;20059;-83
2023/10/24 12:49:59;;;;;;;3.47;0.80;;;14.70;73.90;;;;;;5044003;28;20119;-82